Cosco Himalayas — VRQX8 — position and weather

sailwx.info

Track history (hours):
 
Tides and Currents Weather Stations Pressure Air Temp Water Temp Dewpoint Dewpoint Depression Visibility Wind Speed Wind Dir Waves Ship Positions

Cosco Himalayas

Last reported at 2018-Aug-16 16:04 UTC. Time now 2018-Aug-17 11:14 UTC.
Position N 24°26' E 119°05'.

Length 366 m; draft 11.3 m.

Type: Ship (hazmat cat D). MMSI: 477100300.

Date/timePositionNaut miles runAvg speedWind from/ knotsBaromVisibWave heightAir tempDewpointWater temp
2018-Aug-16 16:04N 24°26' E 119°05'1119.7
2018-Aug-16 15:30N 24°19' E 118°55'1019.8
2018-Aug-16 14:59N 24°14' E 118°45'918.6
2018-Aug-16 14:30N 24°07' E 118°39'1019.4
2018-Aug-16 14:00N 24°02' E 118°30'1118.8
2018-Aug-16 13:24N 23°56' E 118°20'718.3
2018-Aug-16 13:00N 23°50' E 118°15'918.6
2018-Aug-16 12:30N 23°44' E 118°06'917.6
2018-Aug-16 12:00N 23°40' E 117°58'917.5
2018-Aug-16 11:30N 23°35' E 117°50'917.6
2018-Aug-16 11:00N 23°30' E 117°43'917.4
2018-Aug-16 10:30N 23°24' E 117°35'  
2018-Aug-11 03:03N 01°29' E 104°33'218.1
2018-Aug-11 02:56N 01°28' E 104°32'818.3
2018-Aug-11 02:30N 01°23' E 104°26'917.1
2018-Aug-11 01:59N 01°17' E 104°19'917.7
2018-Aug-11 01:30N 01°16' E 104°10'917.9
2018-Aug-11 01:00N 01°15' E 104°02'817.4
2018-Aug-11 00:30N 01°13' E 103°53'5 9.3
2018-Aug-11 00:00N 01°12' E 103°49'3 5.8
2018-Aug-10 23:25N 01°15' E 103°47'0 1.0
2018-Aug-10 23:00N 01°16' E 103°48'0 0.1
2018-Aug-10 22:29N 01°16' E 103°48'0 0.0
2018-Aug-10 21:59N 01°16' E 103°48'0 0.0
2018-Aug-10 21:30N 01°16' E 103°48'0 0.0
2018-Aug-10 21:00N 01°16' E 103°48'0 0.0
2018-Aug-10 20:30N 01°16' E 103°48'0 0.0
2018-Aug-10 19:48N 01°16' E 103°48'0 0.0
2018-Aug-10 19:30N 01°16' E 103°48'0 0.0
2018-Aug-10 19:00N 01°16' E 103°48'0 0.0
2018-Aug-10 18:27N 01°16' E 103°48'0 0.0
2018-Aug-10 17:54N 01°16' E 103°48'0 0.0
2018-Aug-10 17:30N 01°16' E 103°48'0 0.0
2018-Aug-10 16:57N 01°16' E 103°48'0 0.0
2018-Aug-10 16:30N 01°16' E 103°48'0 0.0
2018-Aug-10 16:00N 01°16' E 103°48'0 0.0
2018-Aug-10 15:30N 01°16' E 103°48'0 0.0
2018-Aug-10 15:00N 01°16' E 103°48'0 0.0
2018-Aug-10 14:30N 01°16' E 103°48'0 0.0
2018-Aug-10 13:58N 01°16' E 103°48'0 0.0
2018-Aug-10 13:30N 01°16' E 103°48'0 0.0
2018-Aug-10 12:57N 01°16' E 103°48'0 0.0
2018-Aug-10 12:30N 01°16' E 103°48'0 0.0
2018-Aug-10 12:00N 01°16' E 103°48'0 0.0
2018-Aug-10 11:30N 01°16' E 103°48'0 0.0
2018-Aug-10 11:00N 01°16' E 103°48'0 0.0
2018-Aug-10 10:29N 01°16' E 103°48'0 0.0
2018-Aug-10 10:00N 01°16' E 103°48'0 0.0
2018-Aug-10 09:27N 01°16' E 103°48'0 0.0
2018-Aug-10 09:00N 01°16' E 103°48'0 0.0
2018-Aug-10 08:28N 01°16' E 103°48'0 0.0
2018-Aug-10 08:00N 01°16' E 103°48'0 0.0
2018-Aug-10 07:30N 01°16' E 103°48'0 0.0
2018-Aug-10 07:00N 01°16' E 103°48'0 0.0
2018-Aug-10 06:29N 01°16' E 103°48'0 0.0
2018-Aug-10 05:58N 01°16' E 103°48'0 0.0
2018-Aug-10 05:30N 01°16' E 103°48'0 0.0
2018-Aug-10 04:59N 01°16' E 103°48'0 0.0
2018-Aug-10 04:24N 01°16' E 103°48'0 0.0
2018-Aug-10 03:58N 01°16' E 103°48'0 0.0
2018-Aug-10 03:30N 01°16' E 103°48'0 0.0
2018-Aug-10 03:00N 01°16' E 103°48'0 0.0
2018-Aug-10 02:30N 01°16' E 103°48'0 0.0
2018-Aug-10 01:57N 01°16' E 103°48'0 0.2
2018-Aug-10 01:30N 01°16' E 103°48'2 4.4
2018-Aug-10 01:00N 01°15' E 103°46'510.4
2018-Aug-10 00:30N 01°13' E 103°41'5 9.2
2018-Aug-10 00:00N 01°12' E 103°36'3 5.3
2018-Aug-09 23:30N 01°12' E 103°34'1 2.6
2018-Aug-09 23:00N 01°11' E 103°32'0 0.6
2018-Aug-09 22:30N 01°11' E 103°33'0 0.5
2018-Aug-09 21:58N 01°11' E 103°33'0 0.3
2018-Aug-09 21:29N 01°11' E 103°33'0 0.8
2018-Aug-09 21:00N 01°11' E 103°33'1 1.1
2018-Aug-09 20:30N 01°10' E 103°34'0 0.8
2018-Aug-09 20:00N 01°10' E 103°34'0 0.7
2018-Aug-09 19:30N 01°10' E 103°33'0 0.8
2018-Aug-09 19:00N 01°09' E 103°33'0 0.4
2018-Aug-09 18:30N 01°09' E 103°33'0 0.2
2018-Aug-09 18:00N 01°09' E 103°33'0 0.4
2018-Aug-09 17:29N 01°09' E 103°33'0 0.0
2018-Aug-09 17:00N 01°09' E 103°33'0 0.5
2018-Aug-09 16:30N 01°09' E 103°33'0 0.3
2018-Aug-09 15:59N 01°09' E 103°33'0 0.2
2018-Aug-09 15:30N 01°09' E 103°33'0 0.4
2018-Aug-09 15:00N 01°09' E 103°33'1 1.1
2018-Aug-09 14:30N 01°10' E 103°32'1 2.0
2018-Aug-09 14:00N 01°10' E 103°31'5 9.6
2018-Aug-09 13:30N 01°15' E 103°32'5 9.5
2018-Aug-09 13:00N 01°20' E 103°33'2 3.4
2018-Aug-09 12:30N 01°21' E 103°33'0 0.3
2018-Aug-09 11:56N 01°21' E 103°33'0 0.0
2018-Aug-09 11:26N 01°21' E 103°33'0 0.0
2018-Aug-09 10:57N 01°21' E 103°33'0 0.0
2018-Aug-09 10:27N 01°21' E 103°33'0 0.0
2018-Aug-09 09:46N 01°21' E 103°33'0 0.0
2018-Aug-09 09:20N 01°21' E 103°33'0 0.0
2018-Aug-09 08:50N 01°21' E 103°33'0 0.0
2018-Aug-09 08:09N 01°21' E 103°33'0 0.0
2018-Aug-09 07:51N 01°21' E 103°33'0 0.0
2018-Aug-09 07:30N 01°21' E 103°33'0 0.0
2018-Aug-09 06:55N 01°21' E 103°33'0 0.0
2018-Aug-09 06:29N 01°21' E 103°33'0 0.0
2018-Aug-09 05:57N 01°21' E 103°33'0 0.0
2018-Aug-09 05:13N 01°21' E 103°33'0 0.0
2018-Aug-09 04:41N 01°21' E 103°33'0 0.0
2018-Aug-09 04:26N 01°21' E 103°33'0 0.0
2018-Aug-09 03:14N 01°21' E 103°33'0 0.0
2018-Aug-09 02:58N 01°21' E 103°33'0 0.0
2018-Aug-09 02:29N 01°21' E 103°33'0 0.0
2018-Aug-09 01:44N 01°21' E 103°33'0 0.0
2018-Aug-09 01:18N 01°21' E 103°33'0 0.0
2018-Aug-09 00:56N 01°21' E 103°33'0 0.0
2018-Aug-09 00:26N 01°21' E 103°33'0 0.0
2018-Aug-08 23:39N 01°21' E 103°33'0 0.1
2018-Aug-08 23:27N 01°21' E 103°33'1 1.6
2018-Aug-08 22:59N 01°20' E 103°33'4 9.0
2018-Aug-08 22:30N 01°16' E 103°33'4 7.7
2018-Aug-08 22:00N 01°13' E 103°31'510.5
2018-Aug-08 21:30N 01°11' E 103°26'816.0
2018-Aug-08 20:59N 01°16' E 103°20'916.0
2018-Aug-08 20:27N 01°21' E 103°13'  
Track history (hours):
 
Tides and Currents Weather Stations Pressure Air Temp Water Temp Dewpoint Dewpoint Depression Visibility Wind Speed Wind Dir Waves Ship Positions

Cosco Himalayas

Last reported at 2018-Aug-16 16:04 UTC. Time now 2018-Aug-17 11:14 UTC.
Position N 24°26' E 119°05'.

Length 366 m; draft 11.3 m.

Type: Ship (hazmat cat D). MMSI: 477100300.

Date/timePositionNaut miles runAvg speedWind from/ knotsBaromVisibWave heightAir tempDewpointWater temp
2018-Aug-16 16:04N 24°26' E 119°05'1119.7
2018-Aug-16 15:30N 24°19' E 118°55'1019.8
2018-Aug-16 14:59N 24°14' E 118°45'918.6
2018-Aug-16 14:30N 24°07' E 118°39'1019.4
2018-Aug-16 14:00N 24°02' E 118°30'1118.8
2018-Aug-16 13:24N 23°56' E 118°20'718.3
2018-Aug-16 13:00N 23°50' E 118°15'918.6
2018-Aug-16 12:30N 23°44' E 118°06'917.6
2018-Aug-16 12:00N 23°40' E 117°58'917.5
2018-Aug-16 11:30N 23°35' E 117°50'917.6
2018-Aug-16 11:00N 23°30' E 117°43'917.4
2018-Aug-16 10:30N 23°24' E 117°35'  
2018-Aug-11 03:03N 01°29' E 104°33'218.1
2018-Aug-11 02:56N 01°28' E 104°32'818.3
2018-Aug-11 02:30N 01°23' E 104°26'917.1
2018-Aug-11 01:59N 01°17' E 104°19'917.7
2018-Aug-11 01:30N 01°16' E 104°10'917.9
2018-Aug-11 01:00N 01°15' E 104°02'817.4
2018-Aug-11 00:30N 01°13' E 103°53'5 9.3
2018-Aug-11 00:00N 01°12' E 103°49'3 5.8
2018-Aug-10 23:25N 01°15' E 103°47'0 1.0
2018-Aug-10 23:00N 01°16' E 103°48'0 0.1
2018-Aug-10 22:29N 01°16' E 103°48'0 0.0
2018-Aug-10 21:59N 01°16' E 103°48'0 0.0
2018-Aug-10 21:30N 01°16' E 103°48'0 0.0
2018-Aug-10 21:00N 01°16' E 103°48'0 0.0
2018-Aug-10 20:30N 01°16' E 103°48'0 0.0
2018-Aug-10 19:48N 01°16' E 103°48'0 0.0
2018-Aug-10 19:30N 01°16' E 103°48'0 0.0
2018-Aug-10 19:00N 01°16' E 103°48'0 0.0
2018-Aug-10 18:27N 01°16' E 103°48'0 0.0
2018-Aug-10 17:54N 01°16' E 103°48'0 0.0
2018-Aug-10 17:30N 01°16' E 103°48'0 0.0
2018-Aug-10 16:57N 01°16' E 103°48'0 0.0
2018-Aug-10 16:30N 01°16' E 103°48'0 0.0
2018-Aug-10 16:00N 01°16' E 103°48'0 0.0
2018-Aug-10 15:30N 01°16' E 103°48'0 0.0
2018-Aug-10 15:00N 01°16' E 103°48'0 0.0
2018-Aug-10 14:30N 01°16' E 103°48'0 0.0
2018-Aug-10 13:58N 01°16' E 103°48'0 0.0
2018-Aug-10 13:30N 01°16' E 103°48'0 0.0
2018-Aug-10 12:57N 01°16' E 103°48'0 0.0
2018-Aug-10 12:30N 01°16' E 103°48'0 0.0
2018-Aug-10 12:00N 01°16' E 103°48'0 0.0
2018-Aug-10 11:30N 01°16' E 103°48'0 0.0
2018-Aug-10 11:00N 01°16' E 103°48'0 0.0
2018-Aug-10 10:29N 01°16' E 103°48'0 0.0
2018-Aug-10 10:00N 01°16' E 103°48'0 0.0
2018-Aug-10 09:27N 01°16' E 103°48'0 0.0
2018-Aug-10 09:00N 01°16' E 103°48'0 0.0
2018-Aug-10 08:28N 01°16' E 103°48'0 0.0
2018-Aug-10 08:00N 01°16' E 103°48'0 0.0
2018-Aug-10 07:30N 01°16' E 103°48'0 0.0
2018-Aug-10 07:00N 01°16' E 103°48'0 0.0
2018-Aug-10 06:29N 01°16' E 103°48'0 0.0
2018-Aug-10 05:58N 01°16' E 103°48'0 0.0
2018-Aug-10 05:30N 01°16' E 103°48'0 0.0
2018-Aug-10 04:59N 01°16' E 103°48'0 0.0
2018-Aug-10 04:24N 01°16' E 103°48'0 0.0
2018-Aug-10 03:58N 01°16' E 103°48'0 0.0
2018-Aug-10 03:30N 01°16' E 103°48'0 0.0
2018-Aug-10 03:00N 01°16' E 103°48'0 0.0
2018-Aug-10 02:30N 01°16' E 103°48'0 0.0
2018-Aug-10 01:57N 01°16' E 103°48'0 0.2
2018-Aug-10 01:30N 01°16' E 103°48'2 4.4
2018-Aug-10 01:00N 01°15' E 103°46'510.4
2018-Aug-10 00:30N 01°13' E 103°41'5 9.2
2018-Aug-10 00:00N 01°12' E 103°36'3 5.3
2018-Aug-09 23:30N 01°12' E 103°34'1 2.6
2018-Aug-09 23:00N 01°11' E 103°32'0 0.6
2018-Aug-09 22:30N 01°11' E 103°33'0 0.5
2018-Aug-09 21:58N 01°11' E 103°33'0 0.3
2018-Aug-09 21:29N 01°11' E 103°33'0 0.8
2018-Aug-09 21:00N 01°11' E 103°33'1 1.1
2018-Aug-09 20:30N 01°10' E 103°34'0 0.8
2018-Aug-09 20:00N 01°10' E 103°34'0 0.7
2018-Aug-09 19:30N 01°10' E 103°33'0 0.8
2018-Aug-09 19:00N 01°09' E 103°33'0 0.4
2018-Aug-09 18:30N 01°09' E 103°33'0 0.2
2018-Aug-09 18:00N 01°09' E 103°33'0 0.4
2018-Aug-09 17:29N 01°09' E 103°33'0 0.0
2018-Aug-09 17:00N 01°09' E 103°33'0 0.5
2018-Aug-09 16:30N 01°09' E 103°33'0 0.3
2018-Aug-09 15:59N 01°09' E 103°33'0 0.2
2018-Aug-09 15:30N 01°09' E 103°33'0 0.4
2018-Aug-09 15:00N 01°09' E 103°33'1 1.1
2018-Aug-09 14:30N 01°10' E 103°32'1 2.0
2018-Aug-09 14:00N 01°10' E 103°31'5 9.6
2018-Aug-09 13:30N 01°15' E 103°32'5 9.5
2018-Aug-09 13:00N 01°20' E 103°33'2 3.4
2018-Aug-09 12:30N 01°21' E 103°33'0 0.3
2018-Aug-09 11:56N 01°21' E 103°33'0 0.0
2018-Aug-09 11:26N 01°21' E 103°33'0 0.0
2018-Aug-09 10:57N 01°21' E 103°33'0 0.0
2018-Aug-09 10:27N 01°21' E 103°33'0 0.0
2018-Aug-09 09:46N 01°21' E 103°33'0 0.0
2018-Aug-09 09:20N 01°21' E 103°33'0 0.0
2018-Aug-09 08:50N 01°21' E 103°33'0 0.0
2018-Aug-09 08:09N 01°21' E 103°33'0 0.0
2018-Aug-09 07:51N 01°21' E 103°33'0 0.0
2018-Aug-09 07:30N 01°21' E 103°33'0 0.0
2018-Aug-09 06:55N 01°21' E 103°33'0 0.0
2018-Aug-09 06:29N 01°21' E 103°33'0 0.0
2018-Aug-09 05:57N 01°21' E 103°33'0 0.0
2018-Aug-09 05:13N 01°21' E 103°33'0 0.0
2018-Aug-09 04:41N 01°21' E 103°33'0 0.0
2018-Aug-09 04:26N 01°21' E 103°33'0 0.0
2018-Aug-09 03:14N 01°21' E 103°33'0 0.0
2018-Aug-09 02:58N 01°21' E 103°33'0 0.0
2018-Aug-09 02:29N 01°21' E 103°33'0 0.0
2018-Aug-09 01:44N 01°21' E 103°33'0 0.0
2018-Aug-09 01:18N 01°21' E 103°33'0 0.0
2018-Aug-09 00:56N 01°21' E 103°33'0 0.0
2018-Aug-09 00:26N 01°21' E 103°33'0 0.0
2018-Aug-08 23:39N 01°21' E 103°33'0 0.1
2018-Aug-08 23:27N 01°21' E 103°33'1 1.6
2018-Aug-08 22:59N 01°20' E 103°33'4 9.0
2018-Aug-08 22:30N 01°16' E 103°33'4 7.7
2018-Aug-08 22:00N 01°13' E 103°31'510.5
2018-Aug-08 21:30N 01°11' E 103°26'816.0
2018-Aug-08 20:59N 01°16' E 103°20'916.0
2018-Aug-08 20:27N 01°21' E 103°13'  

Dump ship's entire track history